createdAt,value
2022-11-20T00:00:16.462Z,-3.75
2022-11-20T00:02:42.767Z,-3.77
2022-11-20T00:05:09.655Z,-3.74
2022-11-20T00:07:35.959Z,-3.82
2022-11-20T00:10:02.616Z,-3.82
2022-11-20T00:12:28.906Z,-3.82
2022-11-20T00:14:55.436Z,-3.85
2022-11-20T00:17:21.757Z,-3.87
2022-11-20T00:19:48.066Z,-3.85
2022-11-20T00:22:15.030Z,-3.84
2022-11-20T00:24:43.146Z,-3.90
2022-11-20T00:27:09.706Z,-3.96
2022-11-20T00:29:36.008Z,-3.94
2022-11-20T00:32:02.313Z,-3.89
2022-11-20T00:34:28.613Z,-3.87
2022-11-20T00:36:54.905Z,-3.88
2022-11-20T00:39:21.410Z,-3.93
2022-11-20T00:41:47.938Z,-3.92
2022-11-20T00:44:14.243Z,-3.92
2022-11-20T00:46:40.614Z,-3.99
2022-11-20T00:49:06.927Z,-4.04
2022-11-20T00:51:33.242Z,-4.04
2022-11-20T00:54:00.873Z,-4.00
2022-11-20T00:56:27.262Z,-3.99
2022-11-20T00:58:53.691Z,-3.92
2022-11-20T01:01:25.819Z,-3.90
2022-11-20T01:03:54.362Z,-3.94
2022-11-20T01:06:24.146Z,-3.97
2022-11-20T01:08:51.542Z,-4.01
2022-11-20T01:11:20.758Z,-4.07
2022-11-20T01:13:49.405Z,-4.15
2022-11-20T01:16:18.538Z,-4.19
2022-11-20T01:18:47.850Z,-4.18
2022-11-20T01:21:23.141Z,-4.14
2022-11-20T01:23:50.782Z,-4.16
2022-11-20T01:26:20.238Z,-4.19
2022-11-20T01:28:48.066Z,-4.23
2022-11-20T01:31:27.790Z,-4.21
2022-11-20T01:33:57.281Z,-4.20
2022-11-20T01:36:25.185Z,-4.19
2022-11-20T01:39:01.077Z,-4.20
2022-11-20T01:41:49.119Z,-4.21
2022-11-20T01:44:18.170Z,-4.24
2022-11-20T01:47:06.238Z,-4.26
2022-11-20T01:49:41.992Z,-4.28
2022-11-20T01:52:22.606Z,-4.33
2022-11-20T01:54:53.947Z,-4.40
2022-11-20T01:57:22.306Z,-4.49
2022-11-20T02:00:02.545Z,-4.57
2022-11-20T02:02:29.127Z,-4.65
2022-11-20T02:05:01.125Z,-4.69
2022-11-20T02:07:27.669Z,-4.74
2022-11-20T02:09:58.604Z,-4.76
2022-11-20T02:12:43.944Z,-4.83
2022-11-20T02:15:10.510Z,-4.86
2022-11-20T02:17:36.829Z,-4.82
2022-11-20T02:20:03.977Z,-4.77
2022-11-20T02:22:37.779Z,-4.73
2022-11-20T02:25:06.624Z,-4.70
2022-11-20T02:27:32.945Z,-4.67
2022-11-20T02:30:06.376Z,-4.67
2022-11-20T02:32:35.553Z,-4.66
2022-11-20T02:35:19.977Z,-4.62
2022-11-20T02:37:49.735Z,-4.62
2022-11-20T02:40:16.042Z,-4.61
2022-11-20T02:42:42.356Z,-4.62
2022-11-20T02:45:09.281Z,-4.60
2022-11-20T02:47:35.657Z,-4.62
2022-11-20T02:50:02.206Z,-4.60
2022-11-20T02:52:28.514Z,-4.59
2022-11-20T02:54:55.526Z,-4.57
2022-11-20T02:57:21.834Z,-4.58
2022-11-20T02:59:48.145Z,-4.62
2022-11-20T03:02:14.445Z,-4.74
2022-11-20T03:04:40.769Z,-4.83
2022-11-20T03:07:08.773Z,-4.92
2022-11-20T03:09:35.114Z,-4.92
2022-11-20T03:12:01.447Z,-4.89
2022-11-20T03:14:27.747Z,-4.88
2022-11-20T03:16:54.046Z,-4.87
2022-11-20T03:19:20.792Z,-4.88
2022-11-20T03:21:47.390Z,-4.96
2022-11-20T03:24:14.507Z,-5.03
2022-11-20T03:26:41.517Z,-5.09
2022-11-20T03:29:08.297Z,-5.06
2022-11-20T03:31:38.315Z,-5.04
2022-11-20T03:34:05.481Z,-5.13
2022-11-20T03:36:31.827Z,-5.16
2022-11-20T03:38:58.386Z,-5.15
2022-11-20T03:41:30.190Z,-5.16
2022-11-20T03:44:01.826Z,-5.14
2022-11-20T03:46:29.643Z,-5.13
2022-11-20T03:48:56.654Z,-5.08
2022-11-20T03:51:27.888Z,-5.03
2022-11-20T03:53:56.185Z,-5.01
2022-11-20T03:56:29.132Z,-5.02
2022-11-20T03:58:55.547Z,-5.05
2022-11-20T04:01:24.176Z,-5.05
2022-11-20T04:03:50.524Z,-5.04
2022-11-20T04:06:22.841Z,-5.06
2022-11-20T04:08:53.539Z,-5.10
2022-11-20T04:11:25.941Z,-5.16
2022-11-20T04:13:57.550Z,-5.21
2022-11-20T04:16:25.794Z,-5.22
2022-11-20T04:18:57.021Z,-5.28
2022-11-20T04:21:24.013Z,-5.35
2022-11-20T04:23:51.003Z,-5.39
2022-11-20T04:26:17.546Z,-5.40
2022-11-20T04:28:43.842Z,-5.42
2022-11-20T04:31:19.201Z,-5.50
2022-11-20T04:33:47.091Z,-5.53
2022-11-20T04:36:14.973Z,-5.54
2022-11-20T04:38:41.648Z,-5.58
2022-11-20T04:41:10.691Z,-5.56
2022-11-20T04:43:36.993Z,-5.50
2022-11-20T04:46:03.354Z,-5.53
2022-11-20T04:48:30.294Z,-5.53
2022-11-20T04:50:57.227Z,-5.51
2022-11-20T04:53:24.330Z,-5.51
2022-11-20T04:55:50.660Z,-5.47
2022-11-20T04:58:17.241Z,-5.43
2022-11-20T05:00:43.631Z,-5.43
2022-11-20T05:03:09.936Z,-5.42
2022-11-20T05:05:36.254Z,-5.40
2022-11-20T05:08:02.849Z,-5.37
2022-11-20T05:10:29.298Z,-5.41
2022-11-20T05:12:55.628Z,-5.44
2022-11-20T05:15:22.094Z,-5.44
2022-11-20T05:17:50.125Z,-5.50
2022-11-20T05:20:16.693Z,-5.54
2022-11-20T05:22:43.892Z,-5.64
2022-11-20T05:25:11.005Z,-5.64
2022-11-20T05:27:37.709Z,-5.68
2022-11-20T05:30:07.890Z,-5.67
2022-11-20T05:32:34.211Z,-5.63
2022-11-20T05:35:00.522Z,-5.59
2022-11-20T05:37:26.926Z,-5.66
2022-11-20T05:39:53.220Z,-5.71
2022-11-20T05:42:31.504Z,-5.78
2022-11-20T05:45:02.222Z,-5.81
2022-11-20T05:47:33.695Z,-5.82
2022-11-20T05:50:00.226Z,-5.79
2022-11-20T05:52:30.195Z,-5.74
2022-11-20T05:54:56.794Z,-5.73
2022-11-20T05:57:23.103Z,-5.80
2022-11-20T05:59:49.448Z,-5.85
2022-11-20T06:02:15.929Z,-5.83
2022-11-20T06:04:42.328Z,-5.86
2022-11-20T06:07:08.723Z,-5.86
2022-11-20T06:09:35.119Z,-5.87
2022-11-20T06:12:01.449Z,-5.88
2022-11-20T06:14:27.874Z,-5.88
2022-11-20T06:16:54.225Z,-5.86
2022-11-20T06:19:20.714Z,-5.83
2022-11-20T06:21:49.721Z,-5.82
2022-11-20T06:24:16.544Z,-5.81
2022-11-20T06:26:43.023Z,-5.86
2022-11-20T06:29:09.410Z,-5.94
2022-11-20T06:31:38.488Z,-5.92
2022-11-20T06:34:07.049Z,-5.96
2022-11-20T06:36:34.109Z,-5.94
2022-11-20T06:39:01.090Z,-5.93
2022-11-20T06:41:28.759Z,-5.98
2022-11-20T06:43:55.409Z,-5.96
2022-11-20T06:46:22.263Z,-5.99
2022-11-20T06:48:50.032Z,-5.96
2022-11-20T06:51:16.630Z,-5.90
2022-11-20T06:53:42.978Z,-5.94
2022-11-20T06:56:09.602Z,-5.92
2022-11-20T06:58:37.063Z,-5.86
2022-11-20T07:01:10.173Z,-5.83
2022-11-20T07:03:36.711Z,-5.87
2022-11-20T07:06:03.863Z,-5.91
2022-11-20T07:08:30.568Z,-5.95
2022-11-20T07:11:01.954Z,-5.90
2022-11-20T07:13:29.569Z,-5.88
2022-11-20T07:15:56.264Z,-5.82
2022-11-20T07:18:22.607Z,-5.81
2022-11-20T07:20:48.926Z,-5.75
2022-11-20T07:23:15.329Z,-5.75
2022-11-20T07:25:42.083Z,-5.76
2022-11-20T07:28:08.422Z,-5.72
2022-11-20T07:30:34.780Z,-5.69
2022-11-20T07:33:01.126Z,-5.67
2022-11-20T07:35:27.426Z,-5.62
2022-11-20T07:37:53.793Z,-5.56
2022-11-20T07:40:20.831Z,-5.51
2022-11-20T07:42:55.378Z,-5.40
2022-11-20T07:45:24.143Z,-5.33
2022-11-20T07:47:51.196Z,-5.22
2022-11-20T07:50:17.990Z,-5.17
2022-11-20T07:52:44.609Z,-5.12
2022-11-20T07:55:11.551Z,-5.02
2022-11-20T07:57:38.288Z,-4.94
2022-11-20T08:00:07.951Z,-4.89
2022-11-20T08:02:34.256Z,-4.85
2022-11-20T08:05:00.673Z,-4.80
2022-11-20T08:07:27.044Z,-4.68
2022-11-20T08:09:53.389Z,-4.62
2022-11-20T08:12:40.798Z,-4.51
2022-11-20T08:15:12.811Z,-4.41
2022-11-20T08:17:39.794Z,-4.34
2022-11-20T08:20:06.480Z,-4.26
2022-11-20T08:22:32.797Z,-4.07
2022-11-20T08:24:59.117Z,-3.67
2022-11-20T08:27:25.457Z,-3.55
2022-11-20T08:29:51.771Z,-3.54
2022-11-20T08:32:18.068Z,-3.52
2022-11-20T08:34:44.396Z,-3.45
2022-11-20T08:37:10.740Z,-3.39
2022-11-20T08:39:37.040Z,-3.35
2022-11-20T08:42:03.506Z,-3.29
2022-11-20T08:44:29.930Z,-3.22
2022-11-20T08:46:56.229Z,-3.15
2022-11-20T08:49:23.464Z,-3.08
2022-11-20T08:51:52.606Z,-3.01
2022-11-20T08:54:20.770Z,-2.98
2022-11-20T08:56:47.085Z,-2.91
2022-11-20T09:01:59.686Z,-2.81
2022-11-20T09:04:25.978Z,-2.78
2022-11-20T09:06:52.923Z,-2.75
2022-11-20T09:09:19.896Z,-2.69
2022-11-20T09:11:46.412Z,-2.61
2022-11-20T09:14:12.718Z,-2.54
2022-11-20T09:16:39.132Z,-2.49
2022-11-20T09:19:35.147Z,-2.45
2022-11-20T09:21:56.890Z,-2.41
2022-11-20T09:24:25.814Z,-2.34
2022-11-20T09:26:52.119Z,-2.27
2022-11-20T09:29:19.239Z,-2.18
2022-11-20T09:31:45.785Z,-2.09
2022-11-20T09:34:12.097Z,-2.01
2022-11-20T09:36:38.395Z,-1.96
2022-11-20T09:39:04.770Z,-1.87
2022-11-20T09:41:57.162Z,-1.74
2022-11-20T09:44:54.436Z,-1.63
2022-11-20T09:47:56.119Z,-1.54
2022-11-20T09:50:25.589Z,-1.49
2022-11-20T09:53:11.117Z,-1.42
2022-11-20T09:55:38.205Z,-1.31
2022-11-20T09:58:08.493Z,-1.22
2022-11-20T10:00:37.786Z,-1.15
2022-11-20T10:03:14.822Z,-1.09
2022-11-20T10:05:51.342Z,-1.04
2022-11-20T10:08:31.213Z,-0.95
2022-11-20T10:11:22.918Z,-0.89
2022-11-20T10:13:58.877Z,-0.84
2022-11-20T10:16:44.532Z,-0.81
2022-11-20T10:19:29.806Z,-0.72
2022-11-20T10:22:20.251Z,-0.64
2022-11-20T10:25:06.725Z,-0.49
2022-11-20T10:27:39.702Z,-0.42
2022-11-20T10:30:14.592Z,-0.35
2022-11-20T10:32:44.299Z,-0.30
2022-11-20T10:35:22.631Z,-0.22
2022-11-20T10:38:06.163Z,-0.21
2022-11-20T10:40:38.735Z,-0.18
2022-11-20T10:43:24.495Z,-0.18
2022-11-20T10:45:59.829Z,-0.09
2022-11-20T10:48:28.131Z,-0.05
2022-11-20T10:51:14.286Z,0.02
2022-11-20T10:53:51.918Z,0.03
2022-11-20T10:56:29.494Z,0.12
2022-11-20T10:59:03.458Z,0.19
2022-11-20T11:01:30.651Z,0.24
2022-11-20T11:03:58.103Z,0.31
2022-11-20T11:06:42.645Z,0.37
2022-11-20T11:09:17.917Z,0.37
2022-11-20T11:11:44.567Z,0.44
2022-11-20T11:14:16.136Z,0.48
2022-11-20T11:16:58.810Z,0.58
2022-11-20T11:19:25.792Z,0.60
2022-11-20T11:21:57.505Z,0.62
2022-11-20T11:24:44.965Z,0.64
2022-11-20T11:27:18.422Z,0.66
2022-11-20T11:29:45.856Z,0.69
2022-11-20T11:32:15.152Z,0.71
2022-11-20T11:34:41.609Z,0.74
2022-11-20T11:37:19.204Z,0.77
2022-11-20T11:39:55.120Z,0.80
2022-11-20T11:42:31.179Z,0.84
2022-11-20T11:45:06.155Z,0.85
2022-11-20T11:47:44.794Z,0.89
2022-11-20T11:50:11.061Z,0.91
2022-11-20T11:52:58.104Z,0.96
2022-11-20T11:55:32.103Z,1.02
2022-11-20T11:58:11.067Z,1.03
2022-11-20T12:00:42.194Z,1.06
2022-11-20T12:03:20.497Z,1.10
2022-11-20T12:05:57.975Z,1.15
2022-11-20T12:08:45.591Z,1.18
2022-11-20T12:11:31.571Z,1.24
2022-11-20T12:14:15.663Z,1.28
2022-11-20T12:16:42.132Z,1.31
2022-11-20T12:19:13.238Z,1.35
2022-11-20T12:22:18.656Z,1.40
2022-11-20T12:25:00.111Z,1.46
2022-11-20T12:27:45.477Z,1.47
2022-11-20T12:30:13.586Z,1.47
2022-11-20T12:33:13.452Z,1.47
2022-11-20T12:35:58.426Z,1.45
2022-11-20T12:38:27.791Z,1.44
2022-11-20T12:42:00.623Z,1.44
2022-11-20T12:45:04.334Z,1.45
2022-11-20T12:47:48.760Z,1.44
2022-11-20T12:50:42.813Z,1.44
2022-11-20T12:53:39.784Z,1.44
2022-11-20T12:56:40.254Z,1.48
2022-11-20T12:59:32.229Z,1.51
2022-11-20T13:02:36.933Z,1.56
2022-11-20T13:05:31.276Z,1.59
2022-11-20T13:07:58.803Z,1.64
2022-11-20T13:10:38.083Z,1.67
2022-11-20T13:13:14.494Z,1.69
2022-11-20T13:15:49.085Z,1.69
2022-11-20T13:18:16.101Z,1.73
2022-11-20T13:20:44.793Z,1.74
2022-11-20T13:23:11.455Z,1.73
2022-11-20T13:25:41.530Z,1.76
2022-11-20T13:28:10.850Z,1.79
2022-11-20T13:30:53.572Z,1.79
2022-11-20T13:33:35.911Z,1.82
2022-11-20T13:36:08.494Z,1.84
2022-11-20T13:38:47.937Z,1.83
2022-11-20T13:41:36.174Z,1.82
2022-11-20T13:44:16.116Z,1.82
2022-11-20T13:46:46.053Z,1.82
2022-11-20T13:49:34.036Z,1.82
2022-11-20T13:52:32.362Z,1.83
2022-11-20T13:55:12.371Z,1.82
2022-11-20T13:57:53.671Z,1.85
2022-11-20T14:00:21.451Z,1.83
2022-11-20T14:03:17.531Z,1.85
2022-11-20T14:05:54.960Z,1.84
2022-11-20T14:08:52.572Z,1.84
2022-11-20T14:11:20.269Z,1.82
2022-11-20T14:14:16.262Z,1.82
2022-11-20T14:16:44.083Z,1.80
2022-11-20T14:19:22.637Z,1.80
2022-11-20T14:22:07.471Z,1.81
2022-11-20T14:24:33.975Z,1.76
2022-11-20T14:27:00.501Z,1.76
2022-11-20T14:29:36.266Z,1.77
2022-11-20T14:32:04.052Z,1.77
2022-11-20T14:34:33.668Z,1.78
2022-11-20T14:37:02.697Z,1.78
2022-11-20T14:39:35.176Z,1.78
2022-11-20T14:42:02.146Z,1.77
2022-11-20T14:44:32.433Z,1.79
2022-11-20T14:47:02.694Z,1.81
2022-11-20T14:49:31.621Z,1.81
2022-11-20T14:52:13.775Z,1.82
2022-11-20T14:54:48.152Z,1.84
2022-11-20T14:57:29.952Z,1.84
2022-11-20T15:00:21.228Z,1.85
2022-11-20T15:02:50.087Z,1.87
2022-11-20T15:05:18.642Z,1.88
2022-11-20T15:08:05.209Z,1.87
2022-11-20T15:10:31.766Z,1.88
2022-11-20T15:13:12.455Z,1.87
2022-11-20T15:15:50.848Z,1.87
2022-11-20T15:18:27.927Z,1.87
2022-11-20T15:20:59.295Z,1.87
2022-11-20T15:23:27.330Z,1.89
2022-11-20T15:25:53.702Z,1.91
2022-11-20T15:28:26.146Z,1.91
2022-11-20T15:30:52.442Z,1.91
2022-11-20T15:33:19.954Z,1.91
2022-11-20T15:35:46.389Z,1.89
2022-11-20T15:38:12.866Z,1.89
2022-11-20T15:40:39.221Z,1.88
2022-11-20T15:43:12.546Z,1.91
2022-11-20T15:45:51.764Z,1.90
2022-11-20T15:48:25.430Z,1.91
2022-11-20T15:50:59.393Z,1.91
2022-11-20T15:53:25.774Z,1.91
2022-11-20T15:55:52.130Z,1.89
2022-11-20T15:58:18.466Z,1.88
2022-11-20T16:00:45.467Z,1.89
2022-11-20T16:03:15.810Z,1.88
2022-11-20T16:05:42.186Z,1.89
2022-11-20T16:08:11.465Z,1.90
2022-11-20T16:10:38.930Z,1.90
2022-11-20T16:13:25.163Z,1.91
2022-11-20T16:15:57.955Z,1.93
2022-11-20T16:18:24.254Z,1.94
2022-11-20T16:20:53.516Z,1.94
2022-11-20T16:23:21.082Z,1.95
2022-11-20T16:25:47.776Z,1.96
2022-11-20T16:28:18.609Z,1.97
2022-11-20T16:30:45.866Z,1.99
2022-11-20T16:33:14.266Z,2.00
2022-11-20T16:35:41.086Z,2.02
2022-11-20T16:38:07.534Z,2.04
2022-11-20T16:40:33.846Z,2.05
2022-11-20T16:43:11.684Z,2.05
2022-11-20T16:45:45.279Z,2.07
2022-11-20T16:48:17.447Z,2.08
2022-11-20T16:50:52.270Z,2.09
2022-11-20T16:53:22.734Z,2.11
2022-11-20T16:55:49.357Z,2.12
2022-11-20T16:58:16.325Z,2.13
2022-11-20T17:00:48.487Z,2.14
2022-11-20T17:03:17.972Z,2.13
2022-11-20T17:05:44.330Z,2.14
2022-11-20T17:08:10.627Z,2.15
2022-11-20T17:10:36.996Z,2.15
2022-11-20T17:13:03.286Z,2.16
2022-11-20T17:15:29.579Z,2.17
2022-11-20T17:17:55.893Z,2.17
2022-11-20T17:20:22.216Z,2.17
2022-11-20T17:22:48.529Z,2.19
2022-11-20T17:25:14.903Z,2.20
2022-11-20T17:27:41.188Z,2.21
2022-11-20T17:30:08.214Z,2.22
2022-11-20T17:32:34.517Z,2.21
2022-11-20T17:35:01.554Z,2.23
2022-11-20T17:37:27.848Z,2.23
2022-11-20T17:39:54.234Z,2.23
2022-11-20T17:42:26.598Z,2.24
2022-11-20T17:44:52.922Z,2.24
2022-11-20T17:47:19.273Z,2.26
2022-11-20T17:49:45.658Z,2.28
2022-11-20T17:52:11.953Z,2.28
2022-11-20T17:54:38.294Z,2.29
2022-11-20T17:57:41.416Z,2.28
2022-11-20T18:00:10.128Z,2.29
2022-11-20T18:02:36.430Z,2.29
2022-11-20T18:05:02.852Z,2.30
2022-11-20T18:07:29.410Z,2.32
2022-11-20T18:09:55.727Z,2.33
2022-11-20T18:12:22.027Z,2.33
2022-11-20T18:14:48.348Z,2.32
2022-11-20T18:17:15.949Z,2.30
2022-11-20T18:20:07.190Z,2.30
2022-11-20T18:22:33.608Z,2.29
2022-11-20T18:24:59.911Z,2.29
2022-11-20T18:27:26.200Z,2.29
2022-11-20T18:29:52.703Z,2.30
2022-11-20T18:32:21.517Z,2.28
2022-11-20T18:34:48.192Z,2.29
2022-11-20T18:37:16.318Z,2.30
2022-11-20T18:39:42.829Z,2.30
2022-11-20T18:42:49.630Z,2.29
2022-11-20T18:45:15.966Z,2.30
2022-11-20T18:47:42.334Z,2.32
2022-11-20T18:50:09.006Z,2.33
2022-11-20T18:52:40.671Z,2.32
2022-11-20T18:55:07.932Z,2.32
2022-11-20T18:57:34.370Z,2.31
2022-11-20T19:00:06.388Z,2.33
2022-11-20T19:02:40.534Z,2.33
2022-11-20T19:05:08.945Z,2.35
2022-11-20T19:07:35.364Z,2.35
2022-11-20T19:10:03.984Z,2.35
2022-11-20T19:12:30.954Z,2.33
2022-11-20T19:14:57.419Z,2.32
2022-11-20T19:17:23.761Z,2.32
2022-11-20T19:19:50.342Z,2.30
2022-11-20T19:22:17.023Z,2.29
2022-11-20T19:24:43.316Z,2.30
2022-11-20T19:27:09.630Z,2.31
2022-11-20T19:29:36.007Z,2.30
2022-11-20T19:32:04.303Z,2.28
2022-11-20T19:34:30.741Z,2.26
2022-11-20T19:36:57.077Z,2.28
2022-11-20T19:39:23.696Z,2.28
2022-11-20T19:41:50.119Z,2.29
2022-11-20T19:44:19.362Z,2.31
2022-11-20T19:46:45.701Z,2.32
2022-11-20T19:49:14.234Z,2.31
2022-11-20T19:51:46.053Z,2.32
2022-11-20T19:54:12.589Z,2.32
2022-11-20T19:56:39.027Z,2.32
2022-11-20T19:59:05.653Z,2.30
2022-11-20T20:01:32.379Z,2.30
2022-11-20T20:04:05.164Z,2.31
2022-11-20T20:06:33.818Z,2.32
2022-11-20T20:09:03.875Z,2.32
2022-11-20T20:11:31.699Z,2.35
2022-11-20T20:14:00.954Z,2.37
2022-11-20T20:16:28.618Z,2.35
2022-11-20T20:18:59.172Z,2.34
2022-11-20T20:21:25.624Z,2.35
2022-11-20T20:23:53.950Z,2.36
2022-11-20T20:26:21.474Z,2.37
2022-11-20T20:28:48.044Z,2.37
2022-11-20T20:31:17.237Z,2.38
2022-11-20T20:33:44.130Z,2.39
2022-11-20T20:36:12.599Z,2.39
2022-11-20T20:38:39.252Z,2.42
2022-11-20T20:41:05.773Z,2.41
2022-11-20T20:43:52.234Z,2.43
2022-11-20T20:46:18.673Z,2.44
2022-11-20T20:48:46.328Z,2.42
2022-11-20T20:51:14.518Z,2.39
2022-11-20T20:53:40.838Z,2.41
2022-11-20T20:56:07.397Z,2.37
2022-11-20T20:58:33.698Z,2.38
2022-11-20T21:01:08.382Z,2.41
2022-11-20T21:03:36.141Z,2.41
2022-11-20T21:06:03.890Z,2.38
2022-11-20T21:08:30.247Z,2.38
2022-11-20T21:11:03.528Z,2.41
2022-11-20T21:13:30.643Z,2.43
2022-11-20T21:15:57.105Z,2.44
2022-11-20T21:18:24.394Z,2.43
2022-11-20T21:21:09.886Z,2.43
2022-11-20T21:23:36.851Z,2.45
2022-11-20T21:26:06.469Z,2.47
2022-11-20T21:28:34.521Z,2.46
2022-11-20T21:31:09.367Z,2.47
2022-11-20T21:33:43.323Z,2.47
2022-11-20T21:36:11.638Z,2.48
2022-11-20T21:38:38.027Z,2.47
2022-11-20T21:41:06.781Z,2.48
2022-11-20T21:43:33.114Z,2.51
2022-11-20T21:46:03.713Z,2.50
2022-11-20T21:48:34.830Z,2.51
2022-11-20T21:51:07.017Z,2.52
2022-11-20T21:53:34.292Z,2.53
2022-11-20T21:56:00.938Z,2.53
2022-11-20T21:58:27.590Z,2.53
2022-11-20T22:00:54.014Z,2.54
2022-11-20T22:03:20.409Z,2.54
2022-11-20T22:05:55.443Z,2.54
2022-11-20T22:08:22.800Z,2.52
2022-11-20T22:11:00.588Z,2.53
2022-11-20T22:13:46.202Z,2.54
2022-11-20T22:16:13.553Z,2.55
2022-11-20T22:18:51.117Z,2.57
2022-11-20T22:21:20.034Z,2.55
2022-11-20T22:23:46.925Z,2.56
2022-11-20T22:26:16.186Z,2.55
2022-11-20T22:28:42.985Z,2.56
2022-11-20T22:31:11.856Z,2.55
2022-11-20T22:33:38.842Z,2.53
2022-11-20T22:36:08.310Z,2.53
2022-11-20T22:38:39.326Z,2.52
2022-11-20T22:41:11.406Z,2.53
2022-11-20T22:43:38.540Z,2.53
2022-11-20T22:46:08.303Z,2.54
2022-11-20T22:48:35.764Z,2.51
2022-11-20T22:51:03.298Z,2.52
2022-11-20T22:53:29.600Z,2.49
2022-11-20T22:55:55.966Z,2.50
2022-11-20T22:58:22.442Z,2.50
2022-11-20T23:00:48.770Z,2.50
2022-11-20T23:03:15.212Z,2.50
2022-11-20T23:05:41.519Z,2.51
2022-11-20T23:08:07.807Z,2.51
2022-11-20T23:10:34.155Z,2.50
2022-11-20T23:13:00.498Z,2.52
2022-11-20T23:15:26.786Z,2.52
2022-11-20T23:17:53.338Z,2.51
2022-11-20T23:20:19.649Z,2.51
2022-11-20T23:22:45.940Z,2.50
2022-11-20T23:25:12.321Z,2.51
2022-11-20T23:27:38.609Z,2.49
2022-11-20T23:30:05.327Z,2.47
2022-11-20T23:32:31.638Z,2.48
2022-11-20T23:34:57.921Z,2.47
2022-11-20T23:37:24.217Z,2.43
2022-11-20T23:39:50.513Z,2.44
2022-11-20T23:42:17.090Z,2.39
2022-11-20T23:44:43.411Z,2.41
2022-11-20T23:47:09.729Z,2.38
2022-11-20T23:49:36.026Z,2.36
2022-11-20T23:52:02.573Z,2.33
2022-11-20T23:54:29.225Z,2.33
2022-11-20T23:56:55.618Z,2.31
2022-11-20T23:59:21.909Z,2.31
